Terminal Aerodrome Forecast
Issued by NWS Binghamton, NY

Home | Current Version | Previous Version | Text Only | Print | Product List | Glossary On
Versions: 1 2 3 4 5 6 7 8 9 10 11 12 13 14 15 16 17 18 19 20 21 22 23 24 25
000
FTUS41 KBGM 250200 AAA
TAFBGM
TAF AMD
KBGM 250252Z 2503/2524 18010KT 3/4SM BR OVC007 WS020/20045KT
     FM250700 22015G30KT 3SM -SHRA BR OVC010
     FM250800 24018G30KT P6SM SCT020
     FM251400 27015G28KT P6SM OVC025
     FM252100 28010G18KT P6SM BKN035=

USA.gov is the U.S. government's official web portal to all federal, state and local government web resources and services.